sensor_id;sensor_type;location;lat;lon;timestamp;temperature;humidity
10129;DHT22;5104;50.720;7.044;2022-09-09T00:00:19;15.90;99.90
10129;DHT22;5104;50.720;7.044;2022-09-09T00:02:53;15.80;99.90
10129;DHT22;5104;50.720;7.044;2022-09-09T00:05:28;15.70;99.90
10129;DHT22;5104;50.720;7.044;2022-09-09T00:07:59;15.70;99.90
10129;DHT22;5104;50.720;7.044;2022-09-09T00:10:31;15.70;99.90
10129;DHT22;5104;50.720;7.044;2022-09-09T00:13:04;15.70;99.90
10129;DHT22;5104;50.720;7.044;2022-09-09T00:15:38;15.60;99.90
10129;DHT22;5104;50.720;7.044;2022-09-09T00:18:13;15.60;99.90
10129;DHT22;5104;50.720;7.044;2022-09-09T00:20:46;15.50;99.90
10129;DHT22;5104;50.720;7.044;2022-09-09T00:23:23;15.40;99.90
10129;DHT22;5104;50.720;7.044;2022-09-09T00:25:57;15.50;99.90
10129;DHT22;5104;50.720;7.044;2022-09-09T00:28:26;15.40;99.90
10129;DHT22;5104;50.720;7.044;2022-09-09T00:30:59;15.30;99.90
10129;DHT22;5104;50.720;7.044;2022-09-09T00:33:30;15.30;99.90
10129;DHT22;5104;50.720;7.044;2022-09-09T00:36:00;15.20;99.90
10129;DHT22;5104;50.720;7.044;2022-09-09T00:38:32;15.20;99.90
10129;DHT22;5104;50.720;7.044;2022-09-09T00:41:05;15.20;99.90
10129;DHT22;5104;50.720;7.044;2022-09-09T00:43:35;15.20;99.90
10129;DHT22;5104;50.720;7.044;2022-09-09T00:46:25;15.20;99.90
10129;DHT22;5104;50.720;7.044;2022-09-09T00:49:02;15.30;99.90
10129;DHT22;5104;50.720;7.044;2022-09-09T00:51:41;15.30;99.90
10129;DHT22;5104;50.720;7.044;2022-09-09T00:57:17;15.20;99.90
10129;DHT22;5104;50.720;7.044;2022-09-09T00:59:51;15.20;99.90
10129;DHT22;5104;50.720;7.044;2022-09-09T01:02:26;15.20;99.90
10129;DHT22;5104;50.720;7.044;2022-09-09T01:04:55;15.10;99.90
10129;DHT22;5104;50.720;7.044;2022-09-09T01:07:26;15.20;99.90
10129;DHT22;5104;50.720;7.044;2022-09-09T01:09:56;15.30;99.90
10129;DHT22;5104;50.720;7.044;2022-09-09T01:12:34;15.40;99.90
10129;DHT22;5104;50.720;7.044;2022-09-09T01:15:09;15.60;99.90
10129;DHT22;5104;50.720;7.044;2022-09-09T01:17:49;15.60;99.90
10129;DHT22;5104;50.720;7.044;2022-09-09T01:20:20;15.70;99.90
10129;DHT22;5104;50.720;7.044;2022-09-09T01:23:04;15.70;99.90
10129;DHT22;5104;50.720;7.044;2022-09-09T01:28:40;15.60;99.90
10129;DHT22;5104;50.720;7.044;2022-09-09T01:31:13;15.60;99.90
10129;DHT22;5104;50.720;7.044;2022-09-09T01:33:40;15.60;99.90
10129;DHT22;5104;50.720;7.044;2022-09-09T01:36:10;15.60;99.90
10129;DHT22;5104;50.720;7.044;2022-09-09T01:38:39;15.70;99.90
10129;DHT22;5104;50.720;7.044;2022-09-09T01:41:06;15.80;99.90
10129;DHT22;5104;50.720;7.044;2022-09-09T01:43:33;15.90;99.90
10129;DHT22;5104;50.720;7.044;2022-09-09T01:46:01;15.90;99.90
10129;DHT22;5104;50.720;7.044;2022-09-09T01:48:29;16.00;99.90
10129;DHT22;5104;50.720;7.044;2022-09-09T01:50:56;16.10;99.90
10129;DHT22;5104;50.720;7.044;2022-09-09T01:53:23;16.20;99.90
10129;DHT22;5104;50.720;7.044;2022-09-09T01:55:58;16.30;99.90
10129;DHT22;5104;50.720;7.044;2022-09-09T01:58:34;16.30;99.90
10129;DHT22;5104;50.720;7.044;2022-09-09T02:01:10;16.30;99.90
10129;DHT22;5104;50.720;7.044;2022-09-09T02:03:38;16.30;99.90
10129;DHT22;5104;50.720;7.044;2022-09-09T02:06:14;16.30;99.90
10129;DHT22;5104;50.720;7.044;2022-09-09T02:08:47;16.30;99.90
10129;DHT22;5104;50.720;7.044;2022-09-09T02:11:17;16.30;99.90
10129;DHT22;5104;50.720;7.044;2022-09-09T02:13:46;16.30;99.90
10129;DHT22;5104;50.720;7.044;2022-09-09T02:16:18;16.40;99.90
10129;DHT22;5104;50.720;7.044;2022-09-09T02:18:51;16.40;99.90
10129;DHT22;5104;50.720;7.044;2022-09-09T02:21:21;16.50;99.90
10129;DHT22;5104;50.720;7.044;2022-09-09T02:23:49;16.50;99.90
10129;DHT22;5104;50.720;7.044;2022-09-09T02:26:19;16.50;99.90
10129;DHT22;5104;50.720;7.044;2022-09-09T02:28:49;16.50;99.90
10129;DHT22;5104;50.720;7.044;2022-09-09T02:31:20;16.60;99.90
10129;DHT22;5104;50.720;7.044;2022-09-09T02:33:54;16.60;99.90
10129;DHT22;5104;50.720;7.044;2022-09-09T02:36:24;16.60;99.90
10129;DHT22;5104;50.720;7.044;2022-09-09T02:38:51;16.60;99.90
10129;DHT22;5104;50.720;7.044;2022-09-09T02:41:20;16.60;99.70
10129;DHT22;5104;50.720;7.044;2022-09-09T02:43:49;16.60;98.60
10129;DHT22;5104;50.720;7.044;2022-09-09T02:46:28;16.60;99.90
10129;DHT22;5104;50.720;7.044;2022-09-09T02:49:00;16.60;79.40
10129;DHT22;5104;50.720;7.044;2022-09-09T02:51:35;16.60;38.40
10129;DHT22;5104;50.720;7.044;2022-09-09T02:54:10;16.70;38.50
10129;DHT22;5104;50.720;7.044;2022-09-09T02:56:41;16.70;34.00
10129;DHT22;5104;50.720;7.044;2022-09-09T02:59:10;16.70;17.80
10129;DHT22;5104;50.720;7.044;2022-09-09T03:01:38;16.70;26.30
10129;DHT22;5104;50.720;7.044;2022-09-09T03:04:05;16.70;9.80
10129;DHT22;5104;50.720;7.044;2022-09-09T03:06:32;16.70;64.40
10129;DHT22;5104;50.720;7.044;2022-09-09T03:08:59;16.60;56.60
10129;DHT22;5104;50.720;7.044;2022-09-09T03:11:27;16.60;71.10
10129;DHT22;5104;50.720;7.044;2022-09-09T03:13:54;16.60;99.90
10129;DHT22;5104;50.720;7.044;2022-09-09T03:16:22;16.50;99.90
10129;DHT22;5104;50.720;7.044;2022-09-09T03:18:50;16.50;99.90
10129;DHT22;5104;50.720;7.044;2022-09-09T03:21:17;16.50;99.90
10129;DHT22;5104;50.720;7.044;2022-09-09T03:23:44;16.50;99.90
10129;DHT22;5104;50.720;7.044;2022-09-09T03:26:11;16.40;99.90
10129;DHT22;5104;50.720;7.044;2022-09-09T03:28:40;16.40;99.90
10129;DHT22;5104;50.720;7.044;2022-09-09T03:31:07;16.40;99.90
10129;DHT22;5104;50.720;7.044;2022-09-09T03:33:36;16.30;99.90
10129;DHT22;5104;50.720;7.044;2022-09-09T03:36:04;16.30;99.90
10129;DHT22;5104;50.720;7.044;2022-09-09T03:38:32;16.30;99.90
10129;DHT22;5104;50.720;7.044;2022-09-09T03:41:00;16.30;99.90
10129;DHT22;5104;50.720;7.044;2022-09-09T03:43:28;16.40;99.90
10129;DHT22;5104;50.720;7.044;2022-09-09T03:45:55;16.40;99.90
10129;DHT22;5104;50.720;7.044;2022-09-09T03:48:24;16.50;99.90
10129;DHT22;5104;50.720;7.044;2022-09-09T03:50:52;16.50;99.90
10129;DHT22;5104;50.720;7.044;2022-09-09T03:53:23;16.40;99.90
10129;DHT22;5104;50.720;7.044;2022-09-09T03:55:52;16.40;99.90
10129;DHT22;5104;50.720;7.044;2022-09-09T03:58:20;16.40;99.90
10129;DHT22;5104;50.720;7.044;2022-09-09T04:00:53;16.50;99.90
10129;DHT22;5104;50.720;7.044;2022-09-09T04:03:20;16.50;99.90
10129;DHT22;5104;50.720;7.044;2022-09-09T04:05:49;16.50;99.90
10129;DHT22;5104;50.720;7.044;2022-09-09T04:08:15;16.50;99.90
10129;DHT22;5104;50.720;7.044;2022-09-09T04:10:46;16.50;99.90
10129;DHT22;5104;50.720;7.044;2022-09-09T04:13:13;16.50;99.90
10129;DHT22;5104;50.720;7.044;2022-09-09T04:15:41;16.50;99.90
10129;DHT22;5104;50.720;7.044;2022-09-09T04:18:07;16.50;99.90
10129;DHT22;5104;50.720;7.044;2022-09-09T04:20:34;16.50;99.90
10129;DHT22;5104;50.720;7.044;2022-09-09T04:23:01;16.50;99.90
10129;DHT22;5104;50.720;7.044;2022-09-09T04:25:28;16.60;99.90
10129;DHT22;5104;50.720;7.044;2022-09-09T04:27:57;16.60;99.90
10129;DHT22;5104;50.720;7.044;2022-09-09T04:30:24;16.60;99.90
10129;DHT22;5104;50.720;7.044;2022-09-09T04:32:52;16.60;99.90
10129;DHT22;5104;50.720;7.044;2022-09-09T04:35:19;16.60;99.90
10129;DHT22;5104;50.720;7.044;2022-09-09T04:37:46;16.60;99.90
10129;DHT22;5104;50.720;7.044;2022-09-09T04:40:14;16.60;99.90
10129;DHT22;5104;50.720;7.044;2022-09-09T04:42:40;16.60;99.90
10129;DHT22;5104;50.720;7.044;2022-09-09T04:45:10;16.60;99.90
10129;DHT22;5104;50.720;7.044;2022-09-09T04:47:39;16.60;99.90
10129;DHT22;5104;50.720;7.044;2022-09-09T04:50:07;16.60;99.90
10129;DHT22;5104;50.720;7.044;2022-09-09T04:52:34;16.60;99.90
10129;DHT22;5104;50.720;7.044;2022-09-09T04:55:02;16.60;99.90
10129;DHT22;5104;50.720;7.044;2022-09-09T04:57:28;16.50;99.90
10129;DHT22;5104;50.720;7.044;2022-09-09T04:59:57;16.50;99.90
10129;DHT22;5104;50.720;7.044;2022-09-09T05:02:26;16.50;99.90
10129;DHT22;5104;50.720;7.044;2022-09-09T05:04:53;16.40;99.90
10129;DHT22;5104;50.720;7.044;2022-09-09T05:07:20;16.40;99.90
10129;DHT22;5104;50.720;7.044;2022-09-09T05:09:47;16.40;99.90
10129;DHT22;5104;50.720;7.044;2022-09-09T05:12:14;16.40;99.90
10129;DHT22;5104;50.720;7.044;2022-09-09T05:14:42;16.40;99.90
10129;DHT22;5104;50.720;7.044;2022-09-09T05:17:09;16.40;99.90
10129;DHT22;5104;50.720;7.044;2022-09-09T05:19:37;16.50;99.90
10129;DHT22;5104;50.720;7.044;2022-09-09T05:22:04;16.50;97.90
10129;DHT22;5104;50.720;7.044;2022-09-09T05:24:31;16.50;47.70
10129;DHT22;5104;50.720;7.044;2022-09-09T05:26:58;16.60;22.50
10129;DHT22;5104;50.720;7.044;2022-09-09T05:29:30;16.60;1.00
10129;DHT22;5104;50.720;7.044;2022-09-09T05:31:58;16.60;1.00
10129;DHT22;5104;50.720;7.044;2022-09-09T05:34:25;16.60;1.00
10129;DHT22;5104;50.720;7.044;2022-09-09T05:36:53;16.60;1.00
10129;DHT22;5104;50.720;7.044;2022-09-09T05:39:20;16.60;8.90
10129;DHT22;5104;50.720;7.044;2022-09-09T05:41:47;16.60;1.00
10129;DHT22;5104;50.720;7.044;2022-09-09T05:44:14;16.70;1.00
10129;DHT22;5104;50.720;7.044;2022-09-09T05:46:41;16.60;1.00
10129;DHT22;5104;50.720;7.044;2022-09-09T05:49:07;16.70;1.00
10129;DHT22;5104;50.720;7.044;2022-09-09T05:51:35;16.70;1.00
10129;DHT22;5104;50.720;7.044;2022-09-09T05:54:03;16.70;1.00
10129;DHT22;5104;50.720;7.044;2022-09-09T05:56:30;16.80;1.00
10129;DHT22;5104;50.720;7.044;2022-09-09T05:58:57;16.80;1.00
10129;DHT22;5104;50.720;7.044;2022-09-09T06:01:26;16.80;1.00
10129;DHT22;5104;50.720;7.044;2022-09-09T06:03:54;16.90;1.00
10129;DHT22;5104;50.720;7.044;2022-09-09T06:06:23;17.00;1.00
10129;DHT22;5104;50.720;7.044;2022-09-09T06:08:52;17.10;1.00
10129;DHT22;5104;50.720;7.044;2022-09-09T06:11:22;17.10;1.00
10129;DHT22;5104;50.720;7.044;2022-09-09T06:13:49;17.20;1.00
10129;DHT22;5104;50.720;7.044;2022-09-09T06:16:20;17.30;1.00
10129;DHT22;5104;50.720;7.044;2022-09-09T06:18:49;17.40;99.90
10129;DHT22;5104;50.720;7.044;2022-09-09T06:21:18;17.50;99.90
10129;DHT22;5104;50.720;7.044;2022-09-09T06:23:45;17.60;1.00
10129;DHT22;5104;50.720;7.044;2022-09-09T06:26:14;17.70;1.00
10129;DHT22;5104;50.720;7.044;2022-09-09T06:28:44;17.70;1.00
10129;DHT22;5104;50.720;7.044;2022-09-09T06:31:14;17.80;1.00
10129;DHT22;5104;50.720;7.044;2022-09-09T06:33:43;17.80;1.00
10129;DHT22;5104;50.720;7.044;2022-09-09T06:36:12;17.90;1.00
10129;DHT22;5104;50.720;7.044;2022-09-09T06:38:40;17.90;1.00
10129;DHT22;5104;50.720;7.044;2022-09-09T06:41:08;17.90;1.00
10129;DHT22;5104;50.720;7.044;2022-09-09T06:43:36;18.00;1.00
10129;DHT22;5104;50.720;7.044;2022-09-09T06:46:06;18.10;1.00
10129;DHT22;5104;50.720;7.044;2022-09-09T06:48:33;18.10;1.00
10129;DHT22;5104;50.720;7.044;2022-09-09T06:51:03;18.20;99.90
10129;DHT22;5104;50.720;7.044;2022-09-09T06:53:30;18.20;1.00
10129;DHT22;5104;50.720;7.044;2022-09-09T06:55:59;18.30;99.90
10129;DHT22;5104;50.720;7.044;2022-09-09T06:58:26;18.40;1.00
10129;DHT22;5104;50.720;7.044;2022-09-09T07:01:02;18.40;1.00
10129;DHT22;5104;50.720;7.044;2022-09-09T07:03:30;18.40;1.00
10129;DHT22;5104;50.720;7.044;2022-09-09T07:05:57;18.50;1.00
10129;DHT22;5104;50.720;7.044;2022-09-09T07:08:24;18.50;1.00
10129;DHT22;5104;50.720;7.044;2022-09-09T07:10:52;18.60;1.00
10129;DHT22;5104;50.720;7.044;2022-09-09T07:13:19;18.70;99.90
10129;DHT22;5104;50.720;7.044;2022-09-09T07:15:49;18.70;99.90
10129;DHT22;5104;50.720;7.044;2022-09-09T07:18:16;18.80;99.90
10129;DHT22;5104;50.720;7.044;2022-09-09T07:20:52;18.90;99.90
10129;DHT22;5104;50.720;7.044;2022-09-09T07:23:19;18.90;1.00
10129;DHT22;5104;50.720;7.044;2022-09-09T07:25:46;18.90;1.00
10129;DHT22;5104;50.720;7.044;2022-09-09T07:28:13;18.90;1.00
10129;DHT22;5104;50.720;7.044;2022-09-09T07:30:40;19.10;99.90
10129;DHT22;5104;50.720;7.044;2022-09-09T07:33:08;19.20;99.90
10129;DHT22;5104;50.720;7.044;2022-09-09T07:35:35;19.20;69.90
10129;DHT22;5104;50.720;7.044;2022-09-09T07:38:04;19.50;95.60
10129;DHT22;5104;50.720;7.044;2022-09-09T07:40:32;19.50;1.00
10129;DHT22;5104;50.720;7.044;2022-09-09T07:42:59;19.90;1.00
10129;DHT22;5104;50.720;7.044;2022-09-09T07:45:26;20.30;1.00
10129;DHT22;5104;50.720;7.044;2022-09-09T07:47:53;20.60;99.90
10129;DHT22;5104;50.720;7.044;2022-09-09T07:50:22;20.60;99.90
10129;DHT22;5104;50.720;7.044;2022-09-09T07:52:49;20.60;99.90
10129;DHT22;5104;50.720;7.044;2022-09-09T07:55:17;20.50;99.90
10129;DHT22;5104;50.720;7.044;2022-09-09T07:57:45;20.50;99.90
10129;DHT22;5104;50.720;7.044;2022-09-09T08:00:12;20.40;99.90
10129;DHT22;5104;50.720;7.044;2022-09-09T08:02:40;20.00;99.90
10129;DHT22;5104;50.720;7.044;2022-09-09T08:05:07;19.90;1.00
10129;DHT22;5104;50.720;7.044;2022-09-09T08:07:34;19.90;99.90
10129;DHT22;5104;50.720;7.044;2022-09-09T08:10:01;20.00;99.90
10129;DHT22;5104;50.720;7.044;2022-09-09T08:12:29;20.00;99.90
10129;DHT22;5104;50.720;7.044;2022-09-09T08:14:57;20.30;99.90
10129;DHT22;5104;50.720;7.044;2022-09-09T08:17:24;20.60;1.00
10129;DHT22;5104;50.720;7.044;2022-09-09T08:19:51;20.30;92.80
10129;DHT22;5104;50.720;7.044;2022-09-09T08:22:19;20.20;71.50
10129;DHT22;5104;50.720;7.044;2022-09-09T08:24:47;20.20;65.30
10129;DHT22;5104;50.720;7.044;2022-09-09T08:27:14;20.50;1.00
10129;DHT22;5104;50.720;7.044;2022-09-09T08:29:42;20.80;1.00
10129;DHT22;5104;50.720;7.044;2022-09-09T08:32:10;21.10;1.00
10129;DHT22;5104;50.720;7.044;2022-09-09T08:34:36;21.20;1.00
10129;DHT22;5104;50.720;7.044;2022-09-09T08:37:03;21.60;1.00
10129;DHT22;5104;50.720;7.044;2022-09-09T08:39:30;21.60;1.00
10129;DHT22;5104;50.720;7.044;2022-09-09T08:42:25;21.80;1.00
10129;DHT22;5104;50.720;7.044;2022-09-09T08:45:09;21.50;1.00
10129;DHT22;5104;50.720;7.044;2022-09-09T08:47:45;21.60;1.00
10129;DHT22;5104;50.720;7.044;2022-09-09T08:50:20;21.50;1.00
10129;DHT22;5104;50.720;7.044;2022-09-09T08:52:54;21.40;1.00
10129;DHT22;5104;50.720;7.044;2022-09-09T08:55:27;21.10;1.00
10129;DHT22;5104;50.720;7.044;2022-09-09T08:57:58;21.10;1.00
10129;DHT22;5104;50.720;7.044;2022-09-09T09:00:36;21.10;1.00
10129;DHT22;5104;50.720;7.044;2022-09-09T09:03:15;21.10;1.00
10129;DHT22;5104;50.720;7.044;2022-09-09T09:05:50;21.30;1.00
10129;DHT22;5104;50.720;7.044;2022-09-09T09:08:24;21.10;1.00
10129;DHT22;5104;50.720;7.044;2022-09-09T09:10:55;21.10;1.00
10129;DHT22;5104;50.720;7.044;2022-09-09T09:13:30;21.50;1.00
10129;DHT22;5104;50.720;7.044;2022-09-09T09:16:04;21.60;1.00
10129;DHT22;5104;50.720;7.044;2022-09-09T09:18:33;21.50;1.00
10129;DHT22;5104;50.720;7.044;2022-09-09T09:21:05;21.40;1.00
10129;DHT22;5104;50.720;7.044;2022-09-09T09:23:41;21.50;1.00
10129;DHT22;5104;50.720;7.044;2022-09-09T09:26:09;21.30;1.00
10129;DHT22;5104;50.720;7.044;2022-09-09T09:28:42;21.70;99.90
10129;DHT22;5104;50.720;7.044;2022-09-09T09:31:11;22.30;99.90
10129;DHT22;5104;50.720;7.044;2022-09-09T09:33:46;22.40;99.90
10129;DHT22;5104;50.720;7.044;2022-09-09T09:36:13;22.50;99.90
10129;DHT22;5104;50.720;7.044;2022-09-09T09:38:53;22.50;99.90
10129;DHT22;5104;50.720;7.044;2022-09-09T09:41:31;22.40;99.90
10129;DHT22;5104;50.720;7.044;2022-09-09T09:43:59;22.20;99.90
10129;DHT22;5104;50.720;7.044;2022-09-09T09:46:28;21.90;99.90
10129;DHT22;5104;50.720;7.044;2022-09-09T09:49:00;21.90;99.90
10129;DHT22;5104;50.720;7.044;2022-09-09T09:51:28;21.90;99.90
10129;DHT22;5104;50.720;7.044;2022-09-09T09:54:03;22.00;99.90
10129;DHT22;5104;50.720;7.044;2022-09-09T09:56:35;22.40;99.90
10129;DHT22;5104;50.720;7.044;2022-09-09T09:59:03;22.60;99.90
10129;DHT22;5104;50.720;7.044;2022-09-09T10:01:32;22.60;99.90
10129;DHT22;5104;50.720;7.044;2022-09-09T10:04:12;22.20;99.90
10129;DHT22;5104;50.720;7.044;2022-09-09T10:06:40;22.40;99.90
10129;DHT22;5104;50.720;7.044;2022-09-09T10:09:21;22.40;99.90
10129;DHT22;5104;50.720;7.044;2022-09-09T10:11:55;22.30;99.90
10129;DHT22;5104;50.720;7.044;2022-09-09T10:14:27;22.10;99.90
10129;DHT22;5104;50.720;7.044;2022-09-09T10:17:09;21.90;99.90
10129;DHT22;5104;50.720;7.044;2022-09-09T10:19:44;21.90;99.90
10129;DHT22;5104;50.720;7.044;2022-09-09T10:22:28;22.00;99.90
10129;DHT22;5104;50.720;7.044;2022-09-09T10:28:27;21.80;99.90
10129;DHT22;5104;50.720;7.044;2022-09-09T10:31:05;21.80;99.90
10129;DHT22;5104;50.720;7.044;2022-09-09T10:33:42;21.70;99.90
10129;DHT22;5104;50.720;7.044;2022-09-09T10:36:17;21.80;99.90
10129;DHT22;5104;50.720;7.044;2022-09-09T10:38:47;21.90;99.90
10129;DHT22;5104;50.720;7.044;2022-09-09T10:41:19;22.10;99.90
10129;DHT22;5104;50.720;7.044;2022-09-09T10:44:02;22.20;99.90
10129;DHT22;5104;50.720;7.044;2022-09-09T10:46:40;22.10;99.90
10129;DHT22;5104;50.720;7.044;2022-09-09T10:49:19;22.00;99.90
10129;DHT22;5104;50.720;7.044;2022-09-09T10:51:56;22.10;99.90
10129;DHT22;5104;50.720;7.044;2022-09-09T10:54:44;22.10;99.90
10129;DHT22;5104;50.720;7.044;2022-09-09T10:57:20;22.30;99.90
10129;DHT22;5104;50.720;7.044;2022-09-09T10:59:52;22.30;99.90
10129;DHT22;5104;50.720;7.044;2022-09-09T11:02:26;22.40;99.90
10129;DHT22;5104;50.720;7.044;2022-09-09T11:04:59;22.20;99.90
10129;DHT22;5104;50.720;7.044;2022-09-09T11:07:32;22.40;99.90
10129;DHT22;5104;50.720;7.044;2022-09-09T11:10:03;22.90;99.90
10129;DHT22;5104;50.720;7.044;2022-09-09T11:12:36;23.10;99.90
10129;DHT22;5104;50.720;7.044;2022-09-09T11:15:06;23.20;99.90
10129;DHT22;5104;50.720;7.044;2022-09-09T11:17:40;23.50;99.90
10129;DHT22;5104;50.720;7.044;2022-09-09T11:20:13;23.50;99.90
10129;DHT22;5104;50.720;7.044;2022-09-09T11:22:46;23.30;99.90
10129;DHT22;5104;50.720;7.044;2022-09-09T11:25:16;23.30;99.90
10129;DHT22;5104;50.720;7.044;2022-09-09T11:27:53;23.70;99.90
10129;DHT22;5104;50.720;7.044;2022-09-09T11:30:30;24.10;99.90
10129;DHT22;5104;50.720;7.044;2022-09-09T11:33:24;24.20;99.90
10129;DHT22;5104;50.720;7.044;2022-09-09T11:36:08;24.30;99.90
10129;DHT22;5104;50.720;7.044;2022-09-09T11:38:45;24.50;99.90
10129;DHT22;5104;50.720;7.044;2022-09-09T11:41:12;24.40;99.90
10129;DHT22;5104;50.720;7.044;2022-09-09T11:43:42;24.50;95.80
10129;DHT22;5104;50.720;7.044;2022-09-09T11:46:10;24.20;99.70
10129;DHT22;5104;50.720;7.044;2022-09-09T11:48:39;24.20;90.90
10129;DHT22;5104;50.720;7.044;2022-09-09T11:51:11;24.70;59.40
10129;DHT22;5104;50.720;7.044;2022-09-09T11:53:51;24.50;44.90
10129;DHT22;5104;50.720;7.044;2022-09-09T11:56:29;24.50;39.40
10129;DHT22;5104;50.720;7.044;2022-09-09T11:59:00;24.30;55.40
10129;DHT22;5104;50.720;7.044;2022-09-09T12:01:33;24.10;43.60
10129;DHT22;5104;50.720;7.044;2022-09-09T12:04:17;24.10;51.70
10129;DHT22;5104;50.720;7.044;2022-09-09T12:06:48;23.70;65.40
10129;DHT22;5104;50.720;7.044;2022-09-09T12:09:21;23.80;73.10
10129;DHT22;5104;50.720;7.044;2022-09-09T12:11:50;23.60;76.20
10129;DHT22;5104;50.720;7.044;2022-09-09T12:14:22;23.70;54.80
10129;DHT22;5104;50.720;7.044;2022-09-09T12:16:49;23.60;41.80
10129;DHT22;5104;50.720;7.044;2022-09-09T12:19:23;23.30;54.50
10129;DHT22;5104;50.720;7.044;2022-09-09T12:21:58;23.40;53.50
10129;DHT22;5104;50.720;7.044;2022-09-09T12:24:37;23.30;62.80
10129;DHT22;5104;50.720;7.044;2022-09-09T12:27:13;23.50;85.80
10129;DHT22;5104;50.720;7.044;2022-09-09T12:29:47;23.50;80.10
10129;DHT22;5104;50.720;7.044;2022-09-09T12:32:23;23.30;92.90
10129;DHT22;5104;50.720;7.044;2022-09-09T12:34:54;23.10;93.10
10129;DHT22;5104;50.720;7.044;2022-09-09T12:37:28;22.80;99.90
10129;DHT22;5104;50.720;7.044;2022-09-09T12:39:58;22.80;99.90
10129;DHT22;5104;50.720;7.044;2022-09-09T12:42:26;22.90;99.90
10129;DHT22;5104;50.720;7.044;2022-09-09T12:44:54;23.00;99.90
10129;DHT22;5104;50.720;7.044;2022-09-09T12:47:24;23.00;99.90
10129;DHT22;5104;50.720;7.044;2022-09-09T12:49:52;23.10;99.90
10129;DHT22;5104;50.720;7.044;2022-09-09T12:52:27;22.90;99.90
10129;DHT22;5104;50.720;7.044;2022-09-09T12:54:57;22.90;99.90
10129;DHT22;5104;50.720;7.044;2022-09-09T12:57:26;22.70;99.90
10129;DHT22;5104;50.720;7.044;2022-09-09T13:00:05;22.60;99.90
10129;DHT22;5104;50.720;7.044;2022-09-09T13:02:32;22.40;99.90
10129;DHT22;5104;50.720;7.044;2022-09-09T13:05:08;22.20;99.90
10129;DHT22;5104;50.720;7.044;2022-09-09T13:07:41;22.10;99.90
10129;DHT22;5104;50.720;7.044;2022-09-09T13:10:11;22.20;99.90
10129;DHT22;5104;50.720;7.044;2022-09-09T13:12:38;22.40;99.90
10129;DHT22;5104;50.720;7.044;2022-09-09T13:15:20;22.50;99.90
10129;DHT22;5104;50.720;7.044;2022-09-09T13:17:53;22.50;99.90
10129;DHT22;5104;50.720;7.044;2022-09-09T13:20:22;22.40;99.90
10129;DHT22;5104;50.720;7.044;2022-09-09T13:22:52;22.30;99.90
10129;DHT22;5104;50.720;7.044;2022-09-09T13:25:24;22.10;1.00
10129;DHT22;5104;50.720;7.044;2022-09-09T13:28:00;22.20;1.00
10129;DHT22;5104;50.720;7.044;2022-09-09T13:30:29;22.50;1.00
10129;DHT22;5104;50.720;7.044;2022-09-09T13:33:06;22.60;1.00
10129;DHT22;5104;50.720;7.044;2022-09-09T13:35:46;22.50;99.90
10129;DHT22;5104;50.720;7.044;2022-09-09T13:38:15;22.30;99.90
10129;DHT22;5104;50.720;7.044;2022-09-09T13:40:52;22.70;99.90
10129;DHT22;5104;50.720;7.044;2022-09-09T13:43:22;23.00;99.90
10129;DHT22;5104;50.720;7.044;2022-09-09T13:45:53;22.90;99.90
10129;DHT22;5104;50.720;7.044;2022-09-09T13:48:22;23.10;99.90
10129;DHT22;5104;50.720;7.044;2022-09-09T13:50:55;23.10;99.90
10129;DHT22;5104;50.720;7.044;2022-09-09T13:53:23;23.10;99.90
10129;DHT22;5104;50.720;7.044;2022-09-09T13:55:50;23.10;99.90
10129;DHT22;5104;50.720;7.044;2022-09-09T13:58:18;22.80;99.90
10129;DHT22;5104;50.720;7.044;2022-09-09T14:00:45;22.50;99.90
10129;DHT22;5104;50.720;7.044;2022-09-09T14:03:12;22.90;99.90
10129;DHT22;5104;50.720;7.044;2022-09-09T14:05:40;22.90;99.90
10129;DHT22;5104;50.720;7.044;2022-09-09T14:08:14;22.80;99.90
10129;DHT22;5104;50.720;7.044;2022-09-09T14:10:43;22.70;99.90
10129;DHT22;5104;50.720;7.044;2022-09-09T14:13:10;22.60;99.90
10129;DHT22;5104;50.720;7.044;2022-09-09T14:15:37;22.70;99.90
10129;DHT22;5104;50.720;7.044;2022-09-09T14:18:04;22.80;99.90
10129;DHT22;5104;50.720;7.044;2022-09-09T14:20:31;23.00;99.90
10129;DHT22;5104;50.720;7.044;2022-09-09T14:22:58;23.10;99.90
10129;DHT22;5104;50.720;7.044;2022-09-09T14:25:25;23.30;99.90
10129;DHT22;5104;50.720;7.044;2022-09-09T14:27:54;23.30;99.90
10129;DHT22;5104;50.720;7.044;2022-09-09T14:30:21;23.40;99.90
10129;DHT22;5104;50.720;7.044;2022-09-09T14:32:48;23.20;99.90
10129;DHT22;5104;50.720;7.044;2022-09-09T14:35:15;23.10;99.90
10129;DHT22;5104;50.720;7.044;2022-09-09T14:37:42;23.10;99.90
10129;DHT22;5104;50.720;7.044;2022-09-09T14:40:10;23.50;99.90
10129;DHT22;5104;50.720;7.044;2022-09-09T14:42:37;23.90;99.90
10129;DHT22;5104;50.720;7.044;2022-09-09T14:45:07;23.50;99.90
10129;DHT22;5104;50.720;7.044;2022-09-09T14:47:34;23.50;99.90
10129;DHT22;5104;50.720;7.044;2022-09-09T14:50:01;23.60;99.90
10129;DHT22;5104;50.720;7.044;2022-09-09T14:52:30;23.60;99.90
10129;DHT22;5104;50.720;7.044;2022-09-09T14:54:56;23.60;99.90
10129;DHT22;5104;50.720;7.044;2022-09-09T14:57:23;23.90;99.90
10129;DHT22;5104;50.720;7.044;2022-09-09T14:59:50;24.00;99.90
10129;DHT22;5104;50.720;7.044;2022-09-09T15:02:18;23.60;99.90
10129;DHT22;5104;50.720;7.044;2022-09-09T15:04:45;23.50;99.90
10129;DHT22;5104;50.720;7.044;2022-09-09T15:07:12;23.40;99.90
10129;DHT22;5104;50.720;7.044;2022-09-09T15:09:39;23.30;99.90
10129;DHT22;5104;50.720;7.044;2022-09-09T15:12:06;23.20;99.90
10129;DHT22;5104;50.720;7.044;2022-09-09T15:14:33;23.10;99.90
10129;DHT22;5104;50.720;7.044;2022-09-09T15:17:00;23.20;99.90
10129;DHT22;5104;50.720;7.044;2022-09-09T15:19:28;23.10;99.90
10129;DHT22;5104;50.720;7.044;2022-09-09T15:21:55;22.80;99.90
10129;DHT22;5104;50.720;7.044;2022-09-09T15:24:22;22.40;99.90
10129;DHT22;5104;50.720;7.044;2022-09-09T15:26:49;22.30;1.00
10129;DHT22;5104;50.720;7.044;2022-09-09T15:29:16;22.20;1.00
10129;DHT22;5104;50.720;7.044;2022-09-09T15:31:44;22.00;1.00
10129;DHT22;5104;50.720;7.044;2022-09-09T15:34:12;21.70;1.00
10129;DHT22;5104;50.720;7.044;2022-09-09T15:36:41;21.50;1.00
10129;DHT22;5104;50.720;7.044;2022-09-09T15:39:10;21.50;1.00
10129;DHT22;5104;50.720;7.044;2022-09-09T15:41:38;21.40;1.00
10129;DHT22;5104;50.720;7.044;2022-09-09T15:44:05;21.30;99.90
10129;DHT22;5104;50.720;7.044;2022-09-09T15:46:33;21.10;99.90
10129;DHT22;5104;50.720;7.044;2022-09-09T15:49:07;20.90;99.90
10129;DHT22;5104;50.720;7.044;2022-09-09T15:51:36;20.80;99.90
10129;DHT22;5104;50.720;7.044;2022-09-09T15:54:05;20.70;1.00
10129;DHT22;5104;50.720;7.044;2022-09-09T15:56:32;20.70;1.00
10129;DHT22;5104;50.720;7.044;2022-09-09T15:59:01;20.60;1.00
10129;DHT22;5104;50.720;7.044;2022-09-09T16:01:29;20.60;1.00
10129;DHT22;5104;50.720;7.044;2022-09-09T16:03:56;20.70;1.00
10129;DHT22;5104;50.720;7.044;2022-09-09T16:06:24;20.60;1.00
10129;DHT22;5104;50.720;7.044;2022-09-09T16:08:54;20.70;1.00
10129;DHT22;5104;50.720;7.044;2022-09-09T16:11:25;20.70;1.00
10129;DHT22;5104;50.720;7.044;2022-09-09T16:13:55;20.60;1.00
10129;DHT22;5104;50.720;7.044;2022-09-09T16:16:24;20.60;1.00
10129;DHT22;5104;50.720;7.044;2022-09-09T16:18:53;20.50;1.00